sensor_id;sensor_type;location;lat;lon;timestamp;temperature;humidity
15554;DHT22;7878;44.632;10.942;2023-08-24T00:01:07;31.40;92.20
15554;DHT22;7878;44.632;10.942;2023-08-24T00:03:34;31.40;92.10
15554;DHT22;7878;44.632;10.942;2023-08-24T00:06:00;31.40;92.10
15554;DHT22;7878;44.632;10.942;2023-08-24T00:08:26;31.30;92.10
15554;DHT22;7878;44.632;10.942;2023-08-24T00:10:52;31.30;92.10
15554;DHT22;7878;44.632;10.942;2023-08-24T00:13:18;31.20;92.10
15554;DHT22;7878;44.632;10.942;2023-08-24T00:15:45;31.20;92.30
15554;DHT22;7878;44.632;10.942;2023-08-24T00:18:10;31.20;92.50
15554;DHT22;7878;44.632;10.942;2023-08-24T00:20:36;31.10;92.50
15554;DHT22;7878;44.632;10.942;2023-08-24T00:23:03;31.10;92.60
15554;DHT22;7878;44.632;10.942;2023-08-24T00:25:29;31.10;92.90
15554;DHT22;7878;44.632;10.942;2023-08-24T00:27:56;31.00;93.20
15554;DHT22;7878;44.632;10.942;2023-08-24T00:30:22;30.90;93.10
15554;DHT22;7878;44.632;10.942;2023-08-24T00:32:48;30.90;93.20
15554;DHT22;7878;44.632;10.942;2023-08-24T00:35:14;30.80;93.00
15554;DHT22;7878;44.632;10.942;2023-08-24T00:37:41;30.80;93.00
15554;DHT22;7878;44.632;10.942;2023-08-24T00:40:07;30.80;93.10
15554;DHT22;7878;44.632;10.942;2023-08-24T00:42:40;30.80;93.10
15554;DHT22;7878;44.632;10.942;2023-08-24T00:45:10;30.70;93.60
15554;DHT22;7878;44.632;10.942;2023-08-24T00:47:46;30.60;93.60
15554;DHT22;7878;44.632;10.942;2023-08-24T00:50:12;30.60;94.20
15554;DHT22;7878;44.632;10.942;2023-08-24T00:52:40;30.60;93.30
15554;DHT22;7878;44.632;10.942;2023-08-24T00:55:07;30.50;93.60
15554;DHT22;7878;44.632;10.942;2023-08-24T00:57:33;30.50;93.40
15554;DHT22;7878;44.632;10.942;2023-08-24T00:59:59;30.50;93.40
15554;DHT22;7878;44.632;10.942;2023-08-24T01:02:27;30.50;93.60
15554;DHT22;7878;44.632;10.942;2023-08-24T01:04:53;30.50;93.40
15554;DHT22;7878;44.632;10.942;2023-08-24T01:07:19;30.50;93.60
15554;DHT22;7878;44.632;10.942;2023-08-24T01:09:46;30.40;93.60
15554;DHT22;7878;44.632;10.942;2023-08-24T01:15:16;30.40;93.50
15554;DHT22;7878;44.632;10.942;2023-08-24T01:17:44;30.40;94.90
15554;DHT22;7878;44.632;10.942;2023-08-24T01:20:13;30.40;93.70
15554;DHT22;7878;44.632;10.942;2023-08-24T01:22:54;30.40;94.10
15554;DHT22;7878;44.632;10.942;2023-08-24T01:28:01;30.30;95.40
15554;DHT22;7878;44.632;10.942;2023-08-24T01:30:28;30.30;94.10
15554;DHT22;7878;44.632;10.942;2023-08-24T01:32:54;30.30;94.20
15554;DHT22;7878;44.632;10.942;2023-08-24T01:35:19;30.30;94.10
15554;DHT22;7878;44.632;10.942;2023-08-24T01:37:45;30.20;93.70
15554;DHT22;7878;44.632;10.942;2023-08-24T01:40:16;30.20;93.60
15554;DHT22;7878;44.632;10.942;2023-08-24T01:45:12;30.10;94.00
15554;DHT22;7878;44.632;10.942;2023-08-24T01:47:39;30.10;93.70
15554;DHT22;7878;44.632;10.942;2023-08-24T01:50:07;30.10;94.00
15554;DHT22;7878;44.632;10.942;2023-08-24T01:52:34;30.00;93.80
15554;DHT22;7878;44.632;10.942;2023-08-24T01:55:00;29.90;94.10
15554;DHT22;7878;44.632;10.942;2023-08-24T01:57:25;29.90;94.00
15554;DHT22;7878;44.632;10.942;2023-08-24T01:59:51;29.90;94.10
15554;DHT22;7878;44.632;10.942;2023-08-24T02:02:17;29.90;94.20
15554;DHT22;7878;44.632;10.942;2023-08-24T02:04:42;29.90;94.30
15554;DHT22;7878;44.632;10.942;2023-08-24T02:07:08;29.90;94.20
15554;DHT22;7878;44.632;10.942;2023-08-24T02:09:34;29.90;94.20
15554;DHT22;7878;44.632;10.942;2023-08-24T02:11:59;29.80;94.10
15554;DHT22;7878;44.632;10.942;2023-08-24T02:14:25;29.80;94.20
15554;DHT22;7878;44.632;10.942;2023-08-24T02:16:51;29.80;94.30
15554;DHT22;7878;44.632;10.942;2023-08-24T02:19:16;29.70;94.40
15554;DHT22;7878;44.632;10.942;2023-08-24T02:21:42;29.70;94.80
15554;DHT22;7878;44.632;10.942;2023-08-24T02:24:08;29.70;94.90
15554;DHT22;7878;44.632;10.942;2023-08-24T02:26:33;29.60;95.10
15554;DHT22;7878;44.632;10.942;2023-08-24T02:28:59;29.60;95.30
15554;DHT22;7878;44.632;10.942;2023-08-24T02:31:25;29.60;95.50
15554;DHT22;7878;44.632;10.942;2023-08-24T02:33:50;29.60;95.50
15554;DHT22;7878;44.632;10.942;2023-08-24T02:36:16;29.60;95.40
15554;DHT22;7878;44.632;10.942;2023-08-24T02:38:42;29.70;95.30
15554;DHT22;7878;44.632;10.942;2023-08-24T02:41:08;29.70;95.40
15554;DHT22;7878;44.632;10.942;2023-08-24T02:43:35;29.60;95.40
15554;DHT22;7878;44.632;10.942;2023-08-24T02:46:07;29.60;95.50
15554;DHT22;7878;44.632;10.942;2023-08-24T02:48:33;29.60;96.20
15554;DHT22;7878;44.632;10.942;2023-08-24T02:51:00;29.60;95.50
15554;DHT22;7878;44.632;10.942;2023-08-24T02:53:28;29.60;95.80
15554;DHT22;7878;44.632;10.942;2023-08-24T02:55:55;29.60;95.70
15554;DHT22;7878;44.632;10.942;2023-08-24T02:58:20;29.60;95.80
15554;DHT22;7878;44.632;10.942;2023-08-24T03:00:46;29.60;95.80
15554;DHT22;7878;44.632;10.942;2023-08-24T03:03:13;29.50;95.90
15554;DHT22;7878;44.632;10.942;2023-08-24T03:05:40;29.50;96.00
15554;DHT22;7878;44.632;10.942;2023-08-24T03:08:06;29.50;95.70
15554;DHT22;7878;44.632;10.942;2023-08-24T03:10:35;29.50;95.70
15554;DHT22;7878;44.632;10.942;2023-08-24T03:13:01;29.50;95.90
15554;DHT22;7878;44.632;10.942;2023-08-24T03:15:26;29.40;95.00
15554;DHT22;7878;44.632;10.942;2023-08-24T03:17:52;29.30;94.60
15554;DHT22;7878;44.632;10.942;2023-08-24T03:20:18;29.30;94.30
15554;DHT22;7878;44.632;10.942;2023-08-24T03:22:44;29.30;94.40
15554;DHT22;7878;44.632;10.942;2023-08-24T03:25:10;29.30;94.20
15554;DHT22;7878;44.632;10.942;2023-08-24T03:27:37;29.30;94.20
15554;DHT22;7878;44.632;10.942;2023-08-24T03:30:03;29.30;94.10
15554;DHT22;7878;44.632;10.942;2023-08-24T03:32:29;29.30;93.90
15554;DHT22;7878;44.632;10.942;2023-08-24T03:34:59;29.20;93.90
15554;DHT22;7878;44.632;10.942;2023-08-24T03:37:25;29.20;94.00
15554;DHT22;7878;44.632;10.942;2023-08-24T03:39:50;29.20;93.70
15554;DHT22;7878;44.632;10.942;2023-08-24T03:42:16;29.10;93.70
15554;DHT22;7878;44.632;10.942;2023-08-24T03:44:42;29.10;93.70
15554;DHT22;7878;44.632;10.942;2023-08-24T03:47:08;29.10;93.60
15554;DHT22;7878;44.632;10.942;2023-08-24T03:49:34;29.10;93.60
15554;DHT22;7878;44.632;10.942;2023-08-24T03:52:00;29.00;93.60
15554;DHT22;7878;44.632;10.942;2023-08-24T03:54:25;29.00;93.60
15554;DHT22;7878;44.632;10.942;2023-08-24T03:56:51;28.90;93.60
15554;DHT22;7878;44.632;10.942;2023-08-24T03:59:17;28.90;93.70
15554;DHT22;7878;44.632;10.942;2023-08-24T04:01:43;28.90;93.70
15554;DHT22;7878;44.632;10.942;2023-08-24T04:04:08;28.80;93.80
15554;DHT22;7878;44.632;10.942;2023-08-24T04:06:34;28.80;93.70
15554;DHT22;7878;44.632;10.942;2023-08-24T04:09:00;28.80;93.60
15554;DHT22;7878;44.632;10.942;2023-08-24T04:11:25;28.90;93.60
15554;DHT22;7878;44.632;10.942;2023-08-24T04:13:51;28.80;93.60
15554;DHT22;7878;44.632;10.942;2023-08-24T04:16:17;28.80;93.60
15554;DHT22;7878;44.632;10.942;2023-08-24T04:18:42;28.80;93.70
15554;DHT22;7878;44.632;10.942;2023-08-24T04:21:08;28.80;93.60
15554;DHT22;7878;44.632;10.942;2023-08-24T04:23:34;28.80;93.60
15554;DHT22;7878;44.632;10.942;2023-08-24T04:25:59;28.80;93.70
15554;DHT22;7878;44.632;10.942;2023-08-24T04:28:25;28.80;93.70
15554;DHT22;7878;44.632;10.942;2023-08-24T04:30:56;28.70;93.70
15554;DHT22;7878;44.632;10.942;2023-08-24T04:33:22;28.70;94.10
15554;DHT22;7878;44.632;10.942;2023-08-24T04:35:49;28.70;93.70
15554;DHT22;7878;44.632;10.942;2023-08-24T04:38:15;28.70;93.60
15554;DHT22;7878;44.632;10.942;2023-08-24T04:40:52;28.70;93.50
15554;DHT22;7878;44.632;10.942;2023-08-24T04:43:20;28.80;94.20
15554;DHT22;7878;44.632;10.942;2023-08-24T04:45:50;28.80;93.60
15554;DHT22;7878;44.632;10.942;2023-08-24T04:48:18;28.80;93.90
15554;DHT22;7878;44.632;10.942;2023-08-24T04:50:45;28.80;93.50
15554;DHT22;7878;44.632;10.942;2023-08-24T04:53:17;28.70;93.50
15554;DHT22;7878;44.632;10.942;2023-08-24T04:55:44;28.70;93.80
15554;DHT22;7878;44.632;10.942;2023-08-24T04:58:10;28.70;93.50
15554;DHT22;7878;44.632;10.942;2023-08-24T05:00:37;28.70;93.50
15554;DHT22;7878;44.632;10.942;2023-08-24T05:03:04;28.60;93.50
15554;DHT22;7878;44.632;10.942;2023-08-24T05:05:31;28.70;93.50
15554;DHT22;7878;44.632;10.942;2023-08-24T05:07:57;28.60;93.50
15554;DHT22;7878;44.632;10.942;2023-08-24T05:10:24;28.60;93.40
15554;DHT22;7878;44.632;10.942;2023-08-24T05:12:49;28.70;93.40
15554;DHT22;7878;44.632;10.942;2023-08-24T05:15:15;28.60;93.30
15554;DHT22;7878;44.632;10.942;2023-08-24T05:17:41;28.60;93.40
15554;DHT22;7878;44.632;10.942;2023-08-24T05:20:08;28.60;93.10
15554;DHT22;7878;44.632;10.942;2023-08-24T05:22:39;28.60;93.10
15554;DHT22;7878;44.632;10.942;2023-08-24T05:25:05;28.60;93.10
15554;DHT22;7878;44.632;10.942;2023-08-24T05:27:31;28.60;93.10
15554;DHT22;7878;44.632;10.942;2023-08-24T05:29:57;28.60;93.10
15554;DHT22;7878;44.632;10.942;2023-08-24T05:32:23;28.60;93.10
15554;DHT22;7878;44.632;10.942;2023-08-24T05:34:48;28.50;93.10
15554;DHT22;7878;44.632;10.942;2023-08-24T05:37:14;28.60;93.10
15554;DHT22;7878;44.632;10.942;2023-08-24T05:39:40;28.60;93.00
15554;DHT22;7878;44.632;10.942;2023-08-24T05:42:06;28.60;93.10
15554;DHT22;7878;44.632;10.942;2023-08-24T05:44:32;28.60;93.10
15554;DHT22;7878;44.632;10.942;2023-08-24T05:46:57;28.70;93.10
15554;DHT22;7878;44.632;10.942;2023-08-24T05:49:23;28.70;93.20
15554;DHT22;7878;44.632;10.942;2023-08-24T05:51:50;28.50;93.00
15554;DHT22;7878;44.632;10.942;2023-08-24T05:54:16;28.40;93.20
15554;DHT22;7878;44.632;10.942;2023-08-24T05:56:47;28.50;93.20
15554;DHT22;7878;44.632;10.942;2023-08-24T05:59:14;28.50;93.30
15554;DHT22;7878;44.632;10.942;2023-08-24T06:01:40;28.60;93.20
15554;DHT22;7878;44.632;10.942;2023-08-24T06:04:10;28.50;93.30
15554;DHT22;7878;44.632;10.942;2023-08-24T06:06:36;28.60;93.30
15554;DHT22;7878;44.632;10.942;2023-08-24T06:09:03;28.60;93.20
15554;DHT22;7878;44.632;10.942;2023-08-24T06:11:32;28.70;93.30
15554;DHT22;7878;44.632;10.942;2023-08-24T06:13:58;28.70;93.30
15554;DHT22;7878;44.632;10.942;2023-08-24T06:16:24;28.70;93.30
15554;DHT22;7878;44.632;10.942;2023-08-24T06:18:50;28.80;93.40
15554;DHT22;7878;44.632;10.942;2023-08-24T06:21:16;28.80;93.50
15554;DHT22;7878;44.632;10.942;2023-08-24T06:23:42;28.90;93.40
15554;DHT22;7878;44.632;10.942;2023-08-24T06:26:08;28.90;93.60
15554;DHT22;7878;44.632;10.942;2023-08-24T06:28:34;28.90;93.60
15554;DHT22;7878;44.632;10.942;2023-08-24T06:31:00;29.00;93.40
15554;DHT22;7878;44.632;10.942;2023-08-24T06:33:32;29.10;93.30
15554;DHT22;7878;44.632;10.942;2023-08-24T06:35:58;29.10;93.50
15554;DHT22;7878;44.632;10.942;2023-08-24T06:38:24;29.10;93.20
15554;DHT22;7878;44.632;10.942;2023-08-24T06:40:50;29.10;93.20
15554;DHT22;7878;44.632;10.942;2023-08-24T06:43:16;29.20;93.20
15554;DHT22;7878;44.632;10.942;2023-08-24T06:45:42;29.20;93.30
15554;DHT22;7878;44.632;10.942;2023-08-24T06:48:09;29.30;93.30
15554;DHT22;7878;44.632;10.942;2023-08-24T06:50:35;29.30;93.40
15554;DHT22;7878;44.632;10.942;2023-08-24T06:53:02;29.40;93.40
15554;DHT22;7878;44.632;10.942;2023-08-24T06:55:29;29.50;93.40
15554;DHT22;7878;44.632;10.942;2023-08-24T06:57:54;29.60;93.50
15554;DHT22;7878;44.632;10.942;2023-08-24T07:00:20;29.70;93.50
15554;DHT22;7878;44.632;10.942;2023-08-24T07:02:47;29.70;93.50
15554;DHT22;7878;44.632;10.942;2023-08-24T07:05:13;29.80;93.40
15554;DHT22;7878;44.632;10.942;2023-08-24T07:07:39;29.90;93.40
15554;DHT22;7878;44.632;10.942;2023-08-24T07:10:08;29.90;93.40
15554;DHT22;7878;44.632;10.942;2023-08-24T07:12:34;30.00;93.50
15554;DHT22;7878;44.632;10.942;2023-08-24T07:15:00;30.00;93.20
15554;DHT22;7878;44.632;10.942;2023-08-24T07:17:26;30.10;93.20
15554;DHT22;7878;44.632;10.942;2023-08-24T07:19:52;30.20;93.10
15554;DHT22;7878;44.632;10.942;2023-08-24T07:22:17;30.20;92.90
15554;DHT22;7878;44.632;10.942;2023-08-24T07:24:43;30.30;92.90
15554;DHT22;7878;44.632;10.942;2023-08-24T07:27:09;30.30;92.40
15554;DHT22;7878;44.632;10.942;2023-08-24T07:29:35;30.40;92.50
15554;DHT22;7878;44.632;10.942;2023-08-24T07:32:00;30.40;92.30
15554;DHT22;7878;44.632;10.942;2023-08-24T07:34:26;30.50;92.30
15554;DHT22;7878;44.632;10.942;2023-08-24T07:36:54;30.50;92.30
15554;DHT22;7878;44.632;10.942;2023-08-24T07:39:19;30.60;92.30
15554;DHT22;7878;44.632;10.942;2023-08-24T07:41:45;30.70;92.40
15554;DHT22;7878;44.632;10.942;2023-08-24T07:44:11;30.80;92.50
15554;DHT22;7878;44.632;10.942;2023-08-24T07:46:39;30.80;92.10
15554;DHT22;7878;44.632;10.942;2023-08-24T07:49:05;30.90;92.00
15554;DHT22;7878;44.632;10.942;2023-08-24T07:51:33;30.90;92.10
15554;DHT22;7878;44.632;10.942;2023-08-24T07:53:59;30.90;91.80
15554;DHT22;7878;44.632;10.942;2023-08-24T07:56:25;31.00;91.90
15554;DHT22;7878;44.632;10.942;2023-08-24T07:58:50;31.00;91.70
15554;DHT22;7878;44.632;10.942;2023-08-24T08:01:16;31.10;91.70
15554;DHT22;7878;44.632;10.942;2023-08-24T08:03:42;31.10;91.40
15554;DHT22;7878;44.632;10.942;2023-08-24T08:06:07;31.20;91.30
15554;DHT22;7878;44.632;10.942;2023-08-24T08:08:33;31.30;91.30
15554;DHT22;7878;44.632;10.942;2023-08-24T08:11:00;31.40;91.80
15554;DHT22;7878;44.632;10.942;2023-08-24T08:13:27;31.40;91.40
15554;DHT22;7878;44.632;10.942;2023-08-24T08:15:53;31.50;91.50
15554;DHT22;7878;44.632;10.942;2023-08-24T08:18:19;31.60;91.50
15554;DHT22;7878;44.632;10.942;2023-08-24T08:20:44;31.60;91.70
15554;DHT22;7878;44.632;10.942;2023-08-24T08:23:10;31.60;91.90
15554;DHT22;7878;44.632;10.942;2023-08-24T08:25:36;31.70;92.10
15554;DHT22;7878;44.632;10.942;2023-08-24T08:28:01;31.70;91.80
15554;DHT22;7878;44.632;10.942;2023-08-24T08:30:27;31.70;91.90
15554;DHT22;7878;44.632;10.942;2023-08-24T08:32:53;31.70;92.10
15554;DHT22;7878;44.632;10.942;2023-08-24T08:35:21;31.80;92.20
15554;DHT22;7878;44.632;10.942;2023-08-24T08:37:47;31.80;92.20
15554;DHT22;7878;44.632;10.942;2023-08-24T08:40:15;31.90;92.30
15554;DHT22;7878;44.632;10.942;2023-08-24T08:42:41;31.90;92.50
15554;DHT22;7878;44.632;10.942;2023-08-24T08:45:09;31.90;92.30
15554;DHT22;7878;44.632;10.942;2023-08-24T08:47:35;31.90;92.30
15554;DHT22;7878;44.632;10.942;2023-08-24T08:50:02;32.00;92.50
15554;DHT22;7878;44.632;10.942;2023-08-24T08:52:33;32.10;92.70
15554;DHT22;7878;44.632;10.942;2023-08-24T08:55:00;32.10;92.70
15554;DHT22;7878;44.632;10.942;2023-08-24T08:57:26;32.10;92.60
15554;DHT22;7878;44.632;10.942;2023-08-24T08:59:55;32.20;92.80
15554;DHT22;7878;44.632;10.942;2023-08-24T09:02:21;32.30;92.60
15554;DHT22;7878;44.632;10.942;2023-08-24T09:04:51;32.30;92.60
15554;DHT22;7878;44.632;10.942;2023-08-24T09:07:17;32.40;92.70
15554;DHT22;7878;44.632;10.942;2023-08-24T09:09:43;32.40;92.30
15554;DHT22;7878;44.632;10.942;2023-08-24T09:12:09;32.50;92.30
15554;DHT22;7878;44.632;10.942;2023-08-24T09:14:35;32.50;92.10
15554;DHT22;7878;44.632;10.942;2023-08-24T09:17:01;32.60;91.90
15554;DHT22;7878;44.632;10.942;2023-08-24T09:19:28;32.70;92.00
15554;DHT22;7878;44.632;10.942;2023-08-24T09:21:58;32.70;91.70
15554;DHT22;7878;44.632;10.942;2023-08-24T09:24:34;32.70;91.70
15554;DHT22;7878;44.632;10.942;2023-08-24T09:27:05;32.80;91.40
15554;DHT22;7878;44.632;10.942;2023-08-24T09:29:39;32.80;91.50
15554;DHT22;7878;44.632;10.942;2023-08-24T09:32:08;32.80;91.40
15554;DHT22;7878;44.632;10.942;2023-08-24T09:34:33;32.90;91.10
15554;DHT22;7878;44.632;10.942;2023-08-24T09:37:01;32.90;91.50
15554;DHT22;7878;44.632;10.942;2023-08-24T09:39:29;33.10;91.40
15554;DHT22;7878;44.632;10.942;2023-08-24T09:42:00;33.10;90.40
15554;DHT22;7878;44.632;10.942;2023-08-24T09:44:28;33.10;89.30
15554;DHT22;7878;44.632;10.942;2023-08-24T09:46:54;33.20;90.50
15554;DHT22;7878;44.632;10.942;2023-08-24T09:49:20;33.30;90.30
15554;DHT22;7878;44.632;10.942;2023-08-24T09:51:48;33.30;89.90
15554;DHT22;7878;44.632;10.942;2023-08-24T09:54:16;33.30;90.00
15554;DHT22;7878;44.632;10.942;2023-08-24T09:56:44;33.40;87.80
15554;DHT22;7878;44.632;10.942;2023-08-24T09:59:13;33.50;88.10
15554;DHT22;7878;44.632;10.942;2023-08-24T10:01:44;33.60;88.30
15554;DHT22;7878;44.632;10.942;2023-08-24T10:04:10;33.70;87.50
15554;DHT22;7878;44.632;10.942;2023-08-24T10:06:39;33.70;87.80
15554;DHT22;7878;44.632;10.942;2023-08-24T10:09:11;33.80;86.90
15554;DHT22;7878;44.632;10.942;2023-08-24T10:11:43;33.80;87.40
15554;DHT22;7878;44.632;10.942;2023-08-24T10:14:21;34.00;88.00
15554;DHT22;7878;44.632;10.942;2023-08-24T10:16:49;34.00;82.00
15554;DHT22;7878;44.632;10.942;2023-08-24T10:19:16;34.10;86.70
15554;DHT22;7878;44.632;10.942;2023-08-24T10:21:43;34.20;84.90
15554;DHT22;7878;44.632;10.942;2023-08-24T10:24:09;34.30;85.10
15554;DHT22;7878;44.632;10.942;2023-08-24T10:26:37;34.40;84.00
15554;DHT22;7878;44.632;10.942;2023-08-24T10:29:06;34.50;84.00
15554;DHT22;7878;44.632;10.942;2023-08-24T10:31:32;34.50;83.00
15554;DHT22;7878;44.632;10.942;2023-08-24T10:33:58;34.60;84.50
15554;DHT22;7878;44.632;10.942;2023-08-24T10:36:24;34.60;84.10
15554;DHT22;7878;44.632;10.942;2023-08-24T10:38:55;34.70;84.00
15554;DHT22;7878;44.632;10.942;2023-08-24T10:41:26;34.80;82.60
15554;DHT22;7878;44.632;10.942;2023-08-24T10:43:52;34.90;82.30
15554;DHT22;7878;44.632;10.942;2023-08-24T10:46:34;34.90;83.90
15554;DHT22;7878;44.632;10.942;2023-08-24T10:49:04;35.00;81.50
15554;DHT22;7878;44.632;10.942;2023-08-24T10:51:31;35.10;78.90
15554;DHT22;7878;44.632;10.942;2023-08-24T10:53:59;35.20;80.90
15554;DHT22;7878;44.632;10.942;2023-08-24T10:56:39;35.30;82.10
15554;DHT22;7878;44.632;10.942;2023-08-24T10:59:20;35.40;79.30
15554;DHT22;7878;44.632;10.942;2023-08-24T11:04:18;35.70;80.50
15554;DHT22;7878;44.632;10.942;2023-08-24T11:07:00;35.80;79.40
15554;DHT22;7878;44.632;10.942;2023-08-24T11:09:45;36.00;77.20
15554;DHT22;7878;44.632;10.942;2023-08-24T11:12:14;36.10;77.10
15554;DHT22;7878;44.632;10.942;2023-08-24T11:14:52;36.30;80.60
15554;DHT22;7878;44.632;10.942;2023-08-24T11:17:24;36.40;76.30
15554;DHT22;7878;44.632;10.942;2023-08-24T11:19:53;36.40;79.20
15554;DHT22;7878;44.632;10.942;2023-08-24T11:22:20;36.60;80.30
15554;DHT22;7878;44.632;10.942;2023-08-24T11:24:46;36.80;77.10
15554;DHT22;7878;44.632;10.942;2023-08-24T11:27:12;37.50;78.10
15554;DHT22;7878;44.632;10.942;2023-08-24T11:29:38;39.20;77.50
15554;DHT22;7878;44.632;10.942;2023-08-24T11:32:04;41.50;74.90
15554;DHT22;7878;44.632;10.942;2023-08-24T11:34:30;43.00;71.80
15554;DHT22;7878;44.632;10.942;2023-08-24T11:36:57;43.00;69.80
15554;DHT22;7878;44.632;10.942;2023-08-24T11:39:23;42.90;71.40
15554;DHT22;7878;44.632;10.942;2023-08-24T11:41:58;43.40;70.30
15554;DHT22;7878;44.632;10.942;2023-08-24T11:44:24;41.90;69.50
15554;DHT22;7878;44.632;10.942;2023-08-24T11:46:50;40.40;70.60
15554;DHT22;7878;44.632;10.942;2023-08-24T11:49:16;39.40;70.80
15554;DHT22;7878;44.632;10.942;2023-08-24T11:51:42;38.80;73.90
15554;DHT22;7878;44.632;10.942;2023-08-24T11:54:08;38.50;74.00
15554;DHT22;7878;44.632;10.942;2023-08-24T11:56:42;38.20;74.00
15554;DHT22;7878;44.632;10.942;2023-08-24T11:59:15;38.10;70.70
15554;DHT22;7878;44.632;10.942;2023-08-24T12:01:42;37.90;72.00
15554;DHT22;7878;44.632;10.942;2023-08-24T12:04:08;37.80;74.30
15554;DHT22;7878;44.632;10.942;2023-08-24T12:06:34;37.70;75.20
15554;DHT22;7878;44.632;10.942;2023-08-24T12:09:00;37.70;74.90
15554;DHT22;7878;44.632;10.942;2023-08-24T12:11:28;37.60;75.00
15554;DHT22;7878;44.632;10.942;2023-08-24T12:13:55;37.60;74.80
15554;DHT22;7878;44.632;10.942;2023-08-24T12:16:22;37.60;75.60
15554;DHT22;7878;44.632;10.942;2023-08-24T12:18:56;37.50;75.20
15554;DHT22;7878;44.632;10.942;2023-08-24T12:21:23;37.40;71.20
15554;DHT22;7878;44.632;10.942;2023-08-24T12:24:15;37.40;74.50
15554;DHT22;7878;44.632;10.942;2023-08-24T12:26:41;37.40;70.30
15554;DHT22;7878;44.632;10.942;2023-08-24T12:29:08;37.40;75.70
15554;DHT22;7878;44.632;10.942;2023-08-24T12:31:35;37.40;74.50
15554;DHT22;7878;44.632;10.942;2023-08-24T12:34:05;37.50;74.50
15554;DHT22;7878;44.632;10.942;2023-08-24T12:36:35;37.40;75.40
15554;DHT22;7878;44.632;10.942;2023-08-24T12:39:02;37.40;74.20
15554;DHT22;7878;44.632;10.942;2023-08-24T12:41:31;37.50;75.70
15554;DHT22;7878;44.632;10.942;2023-08-24T12:43:57;37.40;75.50
15554;DHT22;7878;44.632;10.942;2023-08-24T12:46:23;37.40;72.10
15554;DHT22;7878;44.632;10.942;2023-08-24T12:48:49;37.30;74.00
15554;DHT22;7878;44.632;10.942;2023-08-24T12:51:15;37.40;74.20
15554;DHT22;7878;44.632;10.942;2023-08-24T12:53:41;37.40;72.40
15554;DHT22;7878;44.632;10.942;2023-08-24T12:56:07;37.50;73.70
15554;DHT22;7878;44.632;10.942;2023-08-24T12:58:33;37.50;73.30
15554;DHT22;7878;44.632;10.942;2023-08-24T13:00:59;37.40;73.00
15554;DHT22;7878;44.632;10.942;2023-08-24T13:03:25;37.40;73.40
15554;DHT22;7878;44.632;10.942;2023-08-24T13:05:51;37.50;73.70
15554;DHT22;7878;44.632;10.942;2023-08-24T13:08:17;37.50;71.70
15554;DHT22;7878;44.632;10.942;2023-08-24T13:10:42;37.50;72.10
15554;DHT22;7878;44.632;10.942;2023-08-24T13:13:08;37.50;73.00
15554;DHT22;7878;44.632;10.942;2023-08-24T13:15:34;37.50;72.30
15554;DHT22;7878;44.632;10.942;2023-08-24T13:17:59;37.50;72.10
15554;DHT22;7878;44.632;10.942;2023-08-24T13:20:25;37.50;73.20
15554;DHT22;7878;44.632;10.942;2023-08-24T13:22:52;37.50;73.30
15554;DHT22;7878;44.632;10.942;2023-08-24T13:25:18;37.50;73.50
15554;DHT22;7878;44.632;10.942;2023-08-24T13:27:44;37.60;71.40
15554;DHT22;7878;44.632;10.942;2023-08-24T13:30:10;37.60;71.30
15554;DHT22;7878;44.632;10.942;2023-08-24T13:32:35;37.60;70.20
15554;DHT22;7878;44.632;10.942;2023-08-24T13:35:02;37.70;71.20
15554;DHT22;7878;44.632;10.942;2023-08-24T13:37:29;37.60;71.80
15554;DHT22;7878;44.632;10.942;2023-08-24T13:39:54;37.50;71.80
15554;DHT22;7878;44.632;10.942;2023-08-24T13:42:20;37.60;72.10
15554;DHT22;7878;44.632;10.942;2023-08-24T13:44:46;37.50;71.30
15554;DHT22;7878;44.632;10.942;2023-08-24T13:47:12;37.50;71.60
15554;DHT22;7878;44.632;10.942;2023-08-24T13:49:38;37.60;71.20
15554;DHT22;7878;44.632;10.942;2023-08-24T13:52:04;37.60;70.70
15554;DHT22;7878;44.632;10.942;2023-08-24T13:54:30;37.60;70.50
15554;DHT22;7878;44.632;10.942;2023-08-24T13:56:56;37.60;70.50
15554;DHT22;7878;44.632;10.942;2023-08-24T13:59:24;37.60;71.40
15554;DHT22;7878;44.632;10.942;2023-08-24T14:01:49;37.70;70.90
15554;DHT22;7878;44.632;10.942;2023-08-24T14:04:15;37.60;71.20
15554;DHT22;7878;44.632;10.942;2023-08-24T14:06:41;37.60;70.70
15554;DHT22;7878;44.632;10.942;2023-08-24T14:09:06;37.60;71.90
15554;DHT22;7878;44.632;10.942;2023-08-24T14:11:32;37.60;72.00
15554;DHT22;7878;44.632;10.942;2023-08-24T14:13:58;37.60;72.30
15554;DHT22;7878;44.632;10.942;2023-08-24T14:16:25;37.60;72.70
15554;DHT22;7878;44.632;10.942;2023-08-24T14:18:52;37.70;72.90
15554;DHT22;7878;44.632;10.942;2023-08-24T14:21:18;37.70;72.70
15554;DHT22;7878;44.632;10.942;2023-08-24T14:23:46;37.60;72.80
15554;DHT22;7878;44.632;10.942;2023-08-24T14:26:12;37.60;72.60
15554;DHT22;7878;44.632;10.942;2023-08-24T14:28:58;37.60;72.50
15554;DHT22;7878;44.632;10.942;2023-08-24T14:31:27;37.60;69.10
15554;DHT22;7878;44.632;10.942;2023-08-24T14:33:54;37.50;71.90
15554;DHT22;7878;44.632;10.942;2023-08-24T14:36:20;37.60;71.20
15554;DHT22;7878;44.632;10.942;2023-08-24T14:38:46;37.60;70.50
15554;DHT22;7878;44.632;10.942;2023-08-24T14:41:13;37.60;69.70
15554;DHT22;7878;44.632;10.942;2023-08-24T14:43:39;37.60;70.30
15554;DHT22;7878;44.632;10.942;2023-08-24T14:46:06;37.60;70.60
15554;DHT22;7878;44.632;10.942;2023-08-24T14:48:31;37.50;71.00
15554;DHT22;7878;44.632;10.942;2023-08-24T14:50:57;37.60;70.60
15554;DHT22;7878;44.632;10.942;2023-08-24T14:53:24;37.50;70.10
15554;DHT22;7878;44.632;10.942;2023-08-24T14:55:50;37.50;68.10
15554;DHT22;7878;44.632;10.942;2023-08-24T14:58:16;37.50;67.90
15554;DHT22;7878;44.632;10.942;2023-08-24T15:00:42;37.50;70.40
15554;DHT22;7878;44.632;10.942;2023-08-24T15:03:08;37.50;70.80
15554;DHT22;7878;44.632;10.942;2023-08-24T15:05:42;37.50;71.30
15554;DHT22;7878;44.632;10.942;2023-08-24T15:08:08;37.50;68.40
15554;DHT22;7878;44.632;10.942;2023-08-24T15:10:33;37.50;69.80
15554;DHT22;7878;44.632;10.942;2023-08-24T15:12:59;37.50;70.30
15554;DHT22;7878;44.632;10.942;2023-08-24T15:15:25;37.50;70.70
15554;DHT22;7878;44.632;10.942;2023-08-24T15:17:50;37.50;70.50
15554;DHT22;7878;44.632;10.942;2023-08-24T15:20:16;37.50;70.20
15554;DHT22;7878;44.632;10.942;2023-08-24T15:22:42;37.50;70.20
15554;DHT22;7878;44.632;10.942;2023-08-24T15:25:08;37.40;68.70
15554;DHT22;7878;44.632;10.942;2023-08-24T15:27:35;37.50;69.70
15554;DHT22;7878;44.632;10.942;2023-08-24T15:30:01;37.40;69.80
15554;DHT22;7878;44.632;10.942;2023-08-24T15:32:30;37.40;70.00
15554;DHT22;7878;44.632;10.942;2023-08-24T15:34:56;37.40;70.50
15554;DHT22;7878;44.632;10.942;2023-08-24T15:37:21;37.40;70.40
15554;DHT22;7878;44.632;10.942;2023-08-24T15:39:47;37.40;70.30